Time;durP1;ratioP1;P1;durP2;ratioP2;P2;SDS_P1;SDS_P2;PMS_P1;PMS_P2;Temp;Humidity;BMP_temperature;BMP_pressure;BME280_temperature;BME280_humidity;BME280_pressure;Samples;Min_cycle;Max_cycle;Signal;HPM_P1;HPM_P2
2024/01/30 00:02:27;;;;;;;9.90;2.13;;;;;;;;;;4918093;29;20385;-87
2024/01/30 00:05:04;;;;;;;8.90;1.83;;;;;;;;;;4919384;29;20388;-87
2024/01/30 00:07:35;;;;;;;8.05;2.22;;;;;;;;;;4919589;29;20051;-87
2024/01/30 00:10:06;;;;;;;7.03;2.00;;;;;;;;;;4937097;29;20063;-87
2024/01/30 00:12:49;;;;;;;11.45;1.48;;;;;;;;;;4921453;29;20072;-88
2024/01/30 00:15:22;;;;;;;6.55;1.63;;;;;;;;;;4935052;29;20048;-87
2024/01/30 00:17:57;;;;;;;8.07;1.50;;;;;;;;;;4927149;29;20059;-88
2024/01/30 00:20:52;;;;;;;8.85;1.40;;;;;;;;;;4935025;29;20553;-89
2024/01/30 00:24:03;;;;;;;9.45;1.58;;;;;;;;;;4940549;29;20043;-87
2024/01/30 00:26:33;;;;;;;8.18;2.03;;;;;;;;;;4938160;29;20090;-86
2024/01/30 00:29:06;;;;;;;8.23;1.88;;;;;;;;;;4937246;29;20058;-86
2024/01/30 00:31:46;;;;;;;10.45;2.45;;;;;;;;;;4935414;29;20055;-87
2024/01/30 00:34:17;;;;;;;7.40;1.63;;;;;;;;;;4935154;29;20066;-86
2024/01/30 00:36:47;;;;;;;6.53;1.90;;;;;;;;;;4938536;29;20047;-86
2024/01/30 00:39:19;;;;;;;8.05;1.75;;;;;;;;;;4950197;29;20382;-85
2024/01/30 00:41:49;;;;;;;11.05;1.85;;;;;;;;;;4913900;29;20051;-86
2024/01/30 00:44:20;;;;;;;18.23;1.60;;;;;;;;;;4939427;29;20470;-87
2024/01/30 00:46:55;;;;;;;5.85;1.33;;;;;;;;;;4942568;29;20055;-87
2024/01/30 00:49:31;;;;;;;5.57;1.25;;;;;;;;;;4921085;29;20056;-86
2024/01/30 00:52:03;;;;;;;7.70;1.60;;;;;;;;;;4939386;29;20055;-87
2024/01/30 00:54:42;;;;;;;6.13;1.48;;;;;;;;;;4938281;29;20043;-86
2024/01/30 00:57:13;;;;;;;6.65;1.85;;;;;;;;;;4935567;29;20048;-86
2024/01/30 00:59:43;;;;;;;8.15;1.73;;;;;;;;;;4936514;29;20051;-87
2024/01/30 01:02:15;;;;;;;8.35;1.88;;;;;;;;;;4935965;29;20143;-86
2024/01/30 01:04:58;;;;;;;6.72;1.63;;;;;;;;;;4942469;29;20044;-87
2024/01/30 01:07:35;;;;;;;8.55;1.63;;;;;;;;;;4941770;29;20099;-85
2024/01/30 01:10:11;;;;;;;5.93;1.60;;;;;;;;;;4962019;28;20050;-84
2024/01/30 01:12:45;;;;;;;6.00;1.63;;;;;;;;;;4954753;28;20042;-86
2024/01/30 01:15:17;;;;;;;5.38;2.22;;;;;;;;;;4960865;29;20050;-84
2024/01/30 01:18:14;;;;;;;10.25;1.77;;;;;;;;;;4951271;29;20043;-88
2024/01/30 01:20:45;;;;;;;7.38;1.95;;;;;;;;;;4947245;29;20048;-88
2024/01/30 01:23:14;;;;;;;7.55;1.70;;;;;;;;;;4942460;29;20052;-88
2024/01/30 01:25:44;;;;;;;9.15;1.65;;;;;;;;;;4934099;29;20063;-87
2024/01/30 01:28:15;;;;;;;7.78;1.70;;;;;;;;;;4935459;29;20048;-87
2024/01/30 01:30:45;;;;;;;9.18;1.55;;;;;;;;;;4938978;29;20474;-88
2024/01/30 01:33:17;;;;;;;4.22;1.38;;;;;;;;;;4922770;29;20058;-88
2024/01/30 01:35:48;;;;;;;10.32;1.48;;;;;;;;;;4921574;29;20415;-85
2024/01/30 01:38:18;;;;;;;6.22;2.30;;;;;;;;;;4939740;29;20047;-87
2024/01/30 01:40:49;;;;;;;10.27;1.85;;;;;;;;;;4938550;29;20402;-85
2024/01/30 01:43:20;;;;;;;7.18;2.42;;;;;;;;;;4921193;29;20078;-86
2024/01/30 01:45:50;;;;;;;8.98;2.08;;;;;;;;;;4938731;29;20048;-86
2024/01/30 01:48:21;;;;;;;10.68;1.92;;;;;;;;;;4921966;29;20063;-87
2024/01/30 01:50:53;;;;;;;10.80;1.90;;;;;;;;;;4921133;29;20371;-87
2024/01/30 01:53:23;;;;;;;7.53;1.95;;;;;;;;;;4921040;29;20044;-86
2024/01/30 01:55:55;;;;;;;7.93;1.70;;;;;;;;;;4921391;29;20047;-86
2024/01/30 01:58:31;;;;;;;10.00;1.90;;;;;;;;;;4938150;29;20059;-88
2024/01/30 02:01:02;;;;;;;6.95;2.35;;;;;;;;;;4938633;29;20051;-87
2024/01/30 02:03:35;;;;;;;8.30;2.30;;;;;;;;;;4938287;29;20047;-86
2024/01/30 02:06:05;;;;;;;13.90;2.13;;;;;;;;;;4937875;29;20437;-85
2024/01/30 02:08:38;;;;;;;11.48;2.47;;;;;;;;;;4920416;29;20052;-86
2024/01/30 02:11:10;;;;;;;9.43;1.92;;;;;;;;;;4920162;29;20573;-86
2024/01/30 02:13:41;;;;;;;9.00;2.00;;;;;;;;;;4937844;29;20372;-86
2024/01/30 02:16:11;;;;;;;6.15;2.00;;;;;;;;;;4937639;29;20047;-86
2024/01/30 02:18:43;;;;;;;5.53;2.13;;;;;;;;;;4937532;29;20051;-87
2024/01/30 02:21:15;;;;;;;10.80;2.10;;;;;;;;;;4940433;29;20074;-88
2024/01/30 02:23:52;;;;;;;9.27;2.10;;;;;;;;;;4939116;29;20051;-88
2024/01/30 02:26:22;;;;;;;9.85;2.05;;;;;;;;;;4956994;29;20043;-88
2024/01/30 02:28:52;;;;;;;11.82;2.55;;;;;;;;;;4956917;29;20070;-87
2024/01/30 02:31:24;;;;;;;13.48;2.17;;;;;;;;;;4957032;29;20047;-87
2024/01/30 02:33:54;;;;;;;9.18;2.30;;;;;;;;;;4956590;29;20514;-87
2024/01/30 02:36:25;;;;;;;8.80;2.33;;;;;;;;;;4956875;29;20470;-86
2024/01/30 02:38:55;;;;;;;7.82;2.40;;;;;;;;;;4956430;29;20051;-87
2024/01/30 02:41:25;;;;;;;9.38;2.33;;;;;;;;;;4956396;29;20071;-86
2024/01/30 02:43:55;;;;;;;17.80;2.95;;;;;;;;;;4956892;29;20447;-86
2024/01/30 02:46:26;;;;;;;8.43;2.40;;;;;;;;;;4954291;29;20043;-86
2024/01/30 02:48:56;;;;;;;9.60;2.03;;;;;;;;;;4956542;29;20047;-87
2024/01/30 02:51:27;;;;;;;6.03;2.10;;;;;;;;;;4956134;29;20062;-87
2024/01/30 02:53:56;;;;;;;8.50;2.67;;;;;;;;;;4956420;29;20486;-86
2024/01/30 02:56:26;;;;;;;11.80;2.53;;;;;;;;;;4955902;29;20054;-86
2024/01/30 02:58:57;;;;;;;9.82;2.22;;;;;;;;;;4922703;29;20063;-87
2024/01/30 03:01:26;;;;;;;10.27;2.67;;;;;;;;;;4956049;29;20482;-86
2024/01/30 03:03:57;;;;;;;8.60;2.42;;;;;;;;;;4954689;29;20047;-86
2024/01/30 03:06:27;;;;;;;6.57;2.28;;;;;;;;;;4920015;29;20047;-87
2024/01/30 03:08:56;;;;;;;12.15;2.45;;;;;;;;;;4936653;29;20382;-87
2024/01/30 03:11:28;;;;;;;9.48;2.60;;;;;;;;;;4936638;29;20394;-87
2024/01/30 03:13:59;;;;;;;11.45;2.85;;;;;;;;;;4937083;29;20510;-86
2024/01/30 03:16:29;;;;;;;8.25;2.58;;;;;;;;;;4904107;29;20056;-85
2024/01/30 03:19:01;;;;;;;8.18;2.28;;;;;;;;;;4936340;29;20039;-86
2024/01/30 03:21:32;;;;;;;;;;;;;;;;;;4936712;29;20529;-86
2024/01/30 03:24:02;;;;;;;7.28;2.38;;;;;;;;;;4935905;29;19923;-87
2024/01/30 03:26:32;;;;;;;7.57;2.05;;;;;;;;;;4935219;29;20036;-86
2024/01/30 03:29:02;;;;;;;10.23;2.58;;;;;;;;;;4935999;29;20055;-85
2024/01/30 03:31:32;;;;;;;10.75;2.17;;;;;;;;;;4936023;29;20051;-85
2024/01/30 03:34:02;;;;;;;9.35;2.60;;;;;;;;;;4936635;29;20494;-85
2024/01/30 03:36:34;;;;;;;7.85;2.47;;;;;;;;;;4919053;29;20044;-87
2024/01/30 03:39:04;;;;;;;10.75;2.75;;;;;;;;;;4918535;29;20052;-85
2024/01/30 03:41:34;;;;;;;7.70;2.80;;;;;;;;;;4935771;29;20055;-86
2024/01/30 03:44:04;;;;;;;12.07;2.50;;;;;;;;;;4935794;29;20062;-87
2024/01/30 03:46:34;;;;;;;12.45;2.42;;;;;;;;;;4918510;29;20067;-86
2024/01/30 03:49:04;;;;;;;8.00;2.38;;;;;;;;;;4935633;29;20375;-85
2024/01/30 03:51:35;;;;;;;6.15;2.25;;;;;;;;;;4935736;29;20051;-85
2024/01/30 03:54:07;;;;;;;13.25;2.65;;;;;;;;;;4936304;29;20401;-86
2024/01/30 03:56:39;;;;;;;8.90;2.53;;;;;;;;;;4920059;29;20047;-85
2024/01/30 03:59:09;;;;;;;7.47;2.65;;;;;;;;;;4936511;29;20052;-87
2024/01/30 04:01:39;;;;;;;6.80;2.50;;;;;;;;;;4936475;29;20052;-87
2024/01/30 04:04:10;;;;;;;6.75;2.65;;;;;;;;;;4918532;29;20066;-87
2024/01/30 04:06:40;;;;;;;8.77;2.67;;;;;;;;;;4936434;29;20055;-86
2024/01/30 04:09:13;;;;;;;8.52;3.20;;;;;;;;;;4936580;29;20055;-87
2024/01/30 04:11:43;;;;;;;10.88;2.50;;;;;;;;;;4936181;29;20040;-86
2024/01/30 04:14:13;;;;;;;9.45;2.97;;;;;;;;;;4936348;29;20051;-84
2024/01/30 04:16:44;;;;;;;8.32;2.50;;;;;;;;;;4936449;29;20043;-87
2024/01/30 04:19:16;;;;;;;10.45;2.22;;;;;;;;;;4936521;29;20044;-86
2024/01/30 04:21:47;;;;;;;12.23;2.53;;;;;;;;;;4919148;29;20060;-86
2024/01/30 04:24:18;;;;;;;12.32;2.40;;;;;;;;;;4936485;29;20044;-86
2024/01/30 04:26:48;;;;;;;12.30;3.15;;;;;;;;;;4936029;29;20044;-86
2024/01/30 04:29:19;;;;;;;9.63;3.00;;;;;;;;;;4935939;29;20048;-86
2024/01/30 04:31:49;;;;;;;7.72;2.90;;;;;;;;;;4936153;29;20051;-86
2024/01/30 04:34:19;;;;;;;8.90;2.80;;;;;;;;;;4937236;29;20502;-86
2024/01/30 04:36:49;;;;;;;10.95;2.85;;;;;;;;;;4939880;29;20065;-85
2024/01/30 04:39:19;;;;;;;9.23;2.97;;;;;;;;;;4939346;29;20052;-86
2024/01/30 04:41:49;;;;;;;7.20;3.20;;;;;;;;;;4939463;29;20048;-87
2024/01/30 04:44:19;;;;;;;11.35;3.28;;;;;;;;;;4939934;29;20058;-86
2024/01/30 04:46:49;;;;;;;12.63;3.47;;;;;;;;;;4939159;29;20044;-87
2024/01/30 04:49:19;;;;;;;12.45;3.45;;;;;;;;;;4939980;29;20467;-85
2024/01/30 04:51:49;;;;;;;8.77;2.80;;;;;;;;;;4921926;29;20396;-87
2024/01/30 04:54:19;;;;;;;7.65;3.17;;;;;;;;;;4939125;29;20044;-86
2024/01/30 04:56:49;;;;;;;11.80;2.92;;;;;;;;;;4938634;29;20414;-86
2024/01/30 04:59:19;;;;;;;9.18;2.80;;;;;;;;;;4938948;29;20043;-85
2024/01/30 05:01:49;;;;;;;11.40;3.00;;;;;;;;;;4939342;29;20044;-86
2024/01/30 05:04:19;;;;;;;12.60;2.75;;;;;;;;;;4939214;29;20066;-86
2024/01/30 05:06:49;;;;;;;10.65;2.88;;;;;;;;;;4921485;29;20059;-85
2024/01/30 05:09:19;;;;;;;10.52;3.25;;;;;;;;;;4939206;29;20055;-86
2024/01/30 05:11:49;;;;;;;9.15;3.10;;;;;;;;;;4922679;29;20047;-86
2024/01/30 05:14:18;;;;;;;10.25;2.80;;;;;;;;;;4939120;29;20479;-86
2024/01/30 05:16:48;;;;;;;7.10;2.60;;;;;;;;;;4938668;29;20059;-86
2024/01/30 05:19:21;;;;;;;14.18;3.10;;;;;;;;;;4938980;29;20047;-84
2024/01/30 05:21:51;;;;;;;13.13;3.25;;;;;;;;;;4921932;29;20414;-87
2024/01/30 05:24:21;;;;;;;11.82;2.85;;;;;;;;;;4939345;29;20403;-86
2024/01/30 05:26:54;;;;;;;10.25;3.05;;;;;;;;;;4921623;29;20522;-87
2024/01/30 05:29:24;;;;;;;10.38;2.92;;;;;;;;;;4943259;29;20409;-86
2024/01/30 05:31:56;;;;;;;8.00;2.83;;;;;;;;;;4958425;29;20088;-87
2024/01/30 05:34:27;;;;;;;9.60;2.67;;;;;;;;;;4957790;29;20051;-87
2024/01/30 05:36:58;;;;;;;9.27;2.83;;;;;;;;;;4958213;29;20485;-87
2024/01/30 05:39:32;;;;;;;8.02;3.10;;;;;;;;;;4957893;29;20397;-85
2024/01/30 05:42:03;;;;;;;11.35;2.88;;;;;;;;;;4941329;29;20508;-86
2024/01/30 05:44:34;;;;;;;10.00;2.70;;;;;;;;;;4959386;29;20052;-84
2024/01/30 05:47:04;;;;;;;11.13;3.08;;;;;;;;;;4961811;29;20061;-84
2024/01/30 05:49:34;;;;;;;9.93;2.92;;;;;;;;;;4946084;29;20048;-84
2024/01/30 05:52:05;;;;;;;11.70;3.28;;;;;;;;;;4962294;29;20048;-84
2024/01/30 05:54:35;;;;;;;9.25;2.83;;;;;;;;;;4959347;29;20066;-86
2024/01/30 05:57:05;;;;;;;7.28;3.00;;;;;;;;;;4957058;29;20039;-85
2024/01/30 05:59:36;;;;;;;6.15;2.85;;;;;;;;;;4957216;29;20382;-86
2024/01/30 06:02:11;;;;;;;8.30;2.83;;;;;;;;;;4957210;29;20100;-86
2024/01/30 06:04:41;;;;;;;9.63;3.22;;;;;;;;;;4957068;29;20039;-86
2024/01/30 06:07:12;;;;;;;10.23;2.60;;;;;;;;;;4956876;29;20062;-86
2024/01/30 06:09:43;;;;;;;7.53;3.05;;;;;;;;;;4931779;29;20055;-86
2024/01/30 06:12:13;;;;;;;9.45;2.97;;;;;;;;;;4957168;29;20055;-85
2024/01/30 06:14:43;;;;;;;10.00;3.65;;;;;;;;;;4948982;29;20058;-84
2024/01/30 06:17:15;;;;;;;;;;;;;;;;;;4957552;29;20054;-85
2024/01/30 06:19:44;;;;;;;8.60;2.88;;;;;;;;;;4939247;29;19922;-85
2024/01/30 06:22:16;;;;;;;10.10;2.70;;;;;;;;;;4945748;29;20363;-85
2024/01/30 06:24:49;;;;;;;8.45;2.33;;;;;;;;;;4937799;29;20050;-85
2024/01/30 06:27:19;;;;;;;8.88;3.15;;;;;;;;;;4937769;29;20039;-85
2024/01/30 06:29:49;;;;;;;8.30;2.40;;;;;;;;;;4919992;29;20514;-85
2024/01/30 06:32:19;;;;;;;7.47;2.92;;;;;;;;;;4937046;29;20048;-86
2024/01/30 06:34:49;;;;;;;11.70;2.58;;;;;;;;;;4937676;29;20047;-85
2024/01/30 06:37:19;;;;;;;10.32;2.67;;;;;;;;;;4921210;29;20058;-86
2024/01/30 06:39:52;;;;;;;10.52;2.45;;;;;;;;;;4937578;29;20047;-86
2024/01/30 06:42:22;;;;;;;10.02;2.22;;;;;;;;;;4937671;29;20055;-85
2024/01/30 06:44:52;;;;;;;6.35;2.50;;;;;;;;;;4937145;29;20048;-87
2024/01/30 06:47:23;;;;;;;8.80;3.00;;;;;;;;;;4936990;29;20078;-85
2024/01/30 06:49:53;;;;;;;13.02;2.50;;;;;;;;;;4937023;29;20051;-86
2024/01/30 06:52:23;;;;;;;7.65;2.42;;;;;;;;;;4937563;29;20051;-86
2024/01/30 06:54:54;;;;;;;5.68;2.22;;;;;;;;;;4937122;29;20386;-87
2024/01/30 06:57:24;;;;;;;5.47;2.00;;;;;;;;;;4937364;29;20120;-85
2024/01/30 06:59:57;;;;;;;7.38;2.60;;;;;;;;;;4937073;29;20053;-85
2024/01/30 07:02:27;;;;;;;7.53;2.58;;;;;;;;;;4937134;29;20048;-85
2024/01/30 07:04:57;;;;;;;6.25;2.55;;;;;;;;;;4937409;29;20044;-85
2024/01/30 07:07:28;;;;;;;6.43;2.30;;;;;;;;;;4936916;29;20153;-85
2024/01/30 07:09:59;;;;;;;9.02;2.20;;;;;;;;;;4937191;29;20052;-84
2024/01/30 07:12:31;;;;;;;7.38;2.70;;;;;;;;;;4937065;29;20398;-84
2024/01/30 07:15:02;;;;;;;6.30;2.42;;;;;;;;;;4919142;29;20062;-85
2024/01/30 07:17:33;;;;;;;5.32;2.30;;;;;;;;;;4936815;29;20490;-84
2024/01/30 07:20:03;;;;;;;8.25;2.10;;;;;;;;;;4936578;29;20055;-85
2024/01/30 07:22:33;;;;;;;9.68;2.53;;;;;;;;;;4936737;29;20066;-85
2024/01/30 07:25:06;;;;;;;11.32;2.20;;;;;;;;;;4936519;29;20054;-85
2024/01/30 07:27:37;;;;;;;9.85;2.60;;;;;;;;;;4936576;29;20055;-85
2024/01/30 07:30:07;;;;;;;6.97;2.35;;;;;;;;;;4936590;29;20051;-84
2024/01/30 07:32:39;;;;;;;9.45;2.10;;;;;;;;;;4936538;29;20422;-85
2024/01/30 07:35:11;;;;;;;5.45;2.10;;;;;;;;;;4917350;29;20497;-84
2024/01/30 07:37:41;;;;;;;7.40;2.55;;;;;;;;;;4917894;29;20052;-86
2024/01/30 07:40:12;;;;;;;6.68;2.78;;;;;;;;;;4917233;29;20062;-85
2024/01/30 07:42:44;;;;;;;8.90;2.30;;;;;;;;;;4932457;29;20501;-85
2024/01/30 07:45:16;;;;;;;10.13;2.20;;;;;;;;;;4936398;29;20398;-85
2024/01/30 07:47:47;;;;;;;12.88;2.60;;;;;;;;;;4935237;29;20076;-84
2024/01/30 07:50:18;;;;;;;6.40;2.20;;;;;;;;;;4935364;29;20395;-84
2024/01/30 07:52:51;;;;;;;5.95;2.05;;;;;;;;;;4936156;29;20044;-86
2024/01/30 07:55:27;;;;;;;4.93;2.17;;;;;;;;;;4936119;29;20201;-84
2024/01/30 07:57:58;;;;;;;5.65;2.55;;;;;;;;;;4936284;29;20047;-84
2024/01/30 08:00:29;;;;;;;8.05;2.25;;;;;;;;;;4936454;29;20056;-83
2024/01/30 08:02:58;;;;;;;8.25;2.60;;;;;;;;;;4936899;29;20160;-85
2024/01/30 08:05:31;;;;;;;;;;;;;;;;;;4936465;29;20039;-85
2024/01/30 08:08:02;;;;;;;8.25;2.80;;;;;;;;;;4936248;29;19922;-84
2024/01/30 08:10:32;;;;;;;7.07;2.20;;;;;;;;;;4942026;29;20422;-86
2024/01/30 08:13:03;;;;;;;6.40;2.70;;;;;;;;;;4942471;29;20043;-84
2024/01/30 08:15:35;;;;;;;5.80;2.05;;;;;;;;;;4942557;29;20047;-85
2024/01/30 08:18:07;;;;;;;7.03;2.08;;;;;;;;;;4942790;29;20043;-86
2024/01/30 08:20:37;;;;;;;7.38;2.28;;;;;;;;;;4924976;29;20052;-84
2024/01/30 08:23:06;;;;;;;6.90;2.10;;;;;;;;;;4924386;29;20410;-85
2024/01/30 08:25:37;;;;;;;7.07;2.13;;;;;;;;;;4942217;29;20047;-86
2024/01/30 08:28:08;;;;;;;9.57;2.30;;;;;;;;;;4942591;29;20058;-87
2024/01/30 08:30:39;;;;;;;5.60;2.40;;;;;;;;;;4925602;29;20044;-85
2024/01/30 08:33:11;;;;;;;9.60;2.55;;;;;;;;;;4925620;29;20091;-86
2024/01/30 08:35:42;;;;;;;7.43;2.00;;;;;;;;;;4941809;29;20047;-85
2024/01/30 08:38:16;;;;;;;32.20;4.00;;;;;;;;;;4942829;29;20075;-86
2024/01/30 08:40:46;;;;;;;;;;;;;;;;;;4939044;29;20052;-86
2024/01/30 08:43:16;;;;;;;5.50;2.15;;;;;;;;;;4942073;29;19923;-82
2024/01/30 08:45:46;;;;;;;6.10;2.15;;;;;;;;;;4961406;29;20047;-84
2024/01/30 08:48:17;;;;;;;7.22;2.00;;;;;;;;;;4960251;29;20058;-83
2024/01/30 08:50:47;;;;;;;6.85;2.17;;;;;;;;;;4958575;29;20057;-85
2024/01/30 08:53:18;;;;;;;8.45;2.30;;;;;;;;;;4926985;29;20056;-86
2024/01/30 08:55:48;;;;;;;17.88;2.40;;;;;;;;;;4943859;29;20386;-84
2024/01/30 08:58:19;;;;;;;6.00;2.28;;;;;;;;;;4944297;29;20047;-85
2024/01/30 09:00:51;;;;;;;10.45;2.08;;;;;;;;;;4944202;29;20047;-85
2024/01/30 09:03:23;;;;;;;9.68;2.47;;;;;;;;;;4944285;29;20039;-86
2024/01/30 09:05:54;;;;;;;6.90;2.03;;;;;;;;;;4941977;29;20055;-84
2024/01/30 09:08:24;;;;;;;5.93;2.03;;;;;;;;;;4924549;29;20403;-84
2024/01/30 09:10:54;;;;;;;10.40;2.53;;;;;;;;;;4924238;29;20056;-84
2024/01/30 09:13:24;;;;;;;7.47;2.42;;;;;;;;;;4924221;29;20075;-86
2024/01/30 09:15:55;;;;;;;7.60;2.30;;;;;;;;;;4941719;29;20043;-88
2024/01/30 09:18:26;;;;;;;4.82;2.08;;;;;;;;;;4941728;29;20055;-85
2024/01/30 09:20:56;;;;;;;9.18;2.15;;;;;;;;;;4921811;29;20056;-85
2024/01/30 09:23:28;;;;;;;8.10;2.13;;;;;;;;;;4958104;29;20055;-86
2024/01/30 09:25:58;;;;;;;6.80;2.42;;;;;;;;;;4940126;29;20485;-87
2024/01/30 09:28:29;;;;;;;4.90;2.28;;;;;;;;;;4940959;29;20051;-86
2024/01/30 09:30:59;;;;;;;5.18;1.92;;;;;;;;;;4957422;29;20047;-86
2024/01/30 09:33:29;;;;;;;8.63;2.60;;;;;;;;;;4957665;29;20052;-86
2024/01/30 09:35:59;;;;;;;12.63;2.13;;;;;;;;;;4940073;29;20047;-85
2024/01/30 09:38:29;;;;;;;6.03;1.90;;;;;;;;;;4941477;29;20047;-85
2024/01/30 09:41:04;;;;;;;14.48;2.42;;;;;;;;;;4957169;29;20047;-86
2024/01/30 09:43:35;;;;;;;5.68;2.05;;;;;;;;;;4957919;29;20039;-86
2024/01/30 09:46:15;;;;;;;6.50;1.75;;;;;;;;;;4957455;29;20062;-84
2024/01/30 09:48:47;;;;;;;5.03;1.58;;;;;;;;;;4957750;29;20047;-84
2024/01/30 09:51:18;;;;;;;4.45;1.67;;;;;;;;;;4957305;29;20046;-85
2024/01/30 09:53:49;;;;;;;11.32;2.00;;;;;;;;;;4957472;29;20043;-85
2024/01/30 09:56:21;;;;;;;4.47;1.85;;;;;;;;;;4957718;29;20054;-86
2024/01/30 09:58:51;;;;;;;5.50;1.52;;;;;;;;;;4957456;29;20042;-85
2024/01/30 10:01:21;;;;;;;10.00;1.70;;;;;;;;;;4937190;29;20433;-85
2024/01/30 10:03:54;;;;;;;9.50;1.85;;;;;;;;;;4957387;29;20051;-85
2024/01/30 10:06:25;;;;;;;5.85;1.85;;;;;;;;;;4940016;29;20046;-84
2024/01/30 10:08:56;;;;;;;5.03;1.65;;;;;;;;;;4956389;29;20500;-85
2024/01/30 10:11:27;;;;;;;4.82;1.70;;;;;;;;;;4956140;28;20047;-85
2024/01/30 10:13:57;;;;;;;3.85;1.65;;;;;;;;;;4956378;29;20054;-85
2024/01/30 10:16:27;;;;;;;3.55;1.50;;;;;;;;;;4957417;29;20047;-85
2024/01/30 10:18:58;;;;;;;10.10;1.77;;;;;;;;;;4956687;29;20054;-83
2024/01/30 10:21:33;;;;;;;5.40;1.80;;;;;;;;;;4950160;29;20052;-84
2024/01/30 10:24:05;;;;;;;8.32;2.42;;;;;;;;;;4937527;29;20056;-84
2024/01/30 10:26:38;;;;;;;6.97;2.45;;;;;;;;;;4937334;29;20411;-84
2024/01/30 10:29:08;;;;;;;6.65;2.28;;;;;;;;;;4919510;29;20537;-85
2024/01/30 10:31:39;;;;;;;7.20;1.90;;;;;;;;;;4934996;29;20043;-84
2024/01/30 10:34:09;;;;;;;4.82;2.08;;;;;;;;;;4920482;29;20410;-84
2024/01/30 10:36:55;;;;;;;5.22;1.92;;;;;;;;;;4937656;29;20052;-85
2024/01/30 10:39:32;;;;;;;7.32;1.95;;;;;;;;;;4937719;29;20070;-85
2024/01/30 10:42:05;;;;;;;5.72;1.80;;;;;;;;;;4932292;29;20053;-85
2024/01/30 10:45:04;;;;;;;3.83;1.80;;;;;;;;;;4943775;29;20047;-85
2024/01/30 10:47:36;;;;;;;6.43;2.40;;;;;;;;;;4924179;29;20515;-86
2024/01/30 10:50:10;;;;;;;8.85;1.73;;;;;;;;;;4943601;29;20043;-85
2024/01/30 10:52:45;;;;;;;3.35;1.35;;;;;;;;;;4933357;29;20039;-85
2024/01/30 10:55:18;;;;;;;7.82;2.20;;;;;;;;;;4932674;29;20051;-86
2024/01/30 10:57:49;;;;;;;7.20;2.80;;;;;;;;;;4935875;29;20059;-85
2024/01/30 11:00:23;;;;;;;7.03;2.22;;;;;;;;;;4934480;29;20541;-86
2024/01/30 11:02:54;;;;;;;10.23;2.00;;;;;;;;;;4917068;29;20530;-84
2024/01/30 11:05:26;;;;;;;7.35;2.40;;;;;;;;;;4932514;29;20044;-83
2024/01/30 11:08:25;;;;;;;4.60;1.70;;;;;;;;;;4930890;29;20051;-84
2024/01/30 11:10:59;;;;;;;5.85;1.70;;;;;;;;;;4928205;29;20052;-85
2024/01/30 11:13:31;;;;;;;9.48;1.52;;;;;;;;;;4916221;29;20043;-84
2024/01/30 11:16:03;;;;;;;7.97;1.90;;;;;;;;;;4931711;29;20364;-84
2024/01/30 11:18:37;;;;;;;9.45;2.22;;;;;;;;;;4920247;29;20051;-84
2024/01/30 11:21:08;;;;;;;11.50;2.78;;;;;;;;;;4935237;29;20055;-88
2024/01/30 11:23:39;;;;;;;7.80;3.17;;;;;;;;;;4918799;29;20050;-86
2024/01/30 11:26:11;;;;;;;9.90;2.35;;;;;;;;;;4934774;29;20046;-86
2024/01/30 11:28:42;;;;;;;17.30;3.17;;;;;;;;;;4933615;29;20051;-88
2024/01/30 11:31:19;;;;;;;13.30;3.47;;;;;;;;;;4934468;29;20126;-87
2024/01/30 11:33:53;;;;;;;12.02;2.28;;;;;;;;;;4934807;29;20046;-87
2024/01/30 11:36:26;;;;;;;7.45;2.40;;;;;;;;;;4920605;29;20044;-85
2024/01/30 11:38:57;;;;;;;14.18;2.58;;;;;;;;;;4942558;29;20043;-84
2024/01/30 11:41:29;;;;;;;11.32;2.30;;;;;;;;;;4943080;29;20150;-84
2024/01/30 11:44:00;;;;;;;12.18;1.90;;;;;;;;;;4940647;29;20051;-83
2024/01/30 11:46:30;;;;;;;10.15;2.03;;;;;;;;;;4939844;29;20067;-86
2024/01/30 11:49:00;;;;;;;10.38;2.05;;;;;;;;;;4935174;29;20071;-86
2024/01/30 11:51:31;;;;;;;8.35;1.80;;;;;;;;;;4934823;29;20051;-86
2024/01/30 11:54:02;;;;;;;8.15;1.70;;;;;;;;;;4935252;29;20132;-88
2024/01/30 11:56:32;;;;;;;6.50;1.60;;;;;;;;;;4903533;29;20052;-86
2024/01/30 11:59:02;;;;;;;6.47;1.63;;;;;;;;;;4913634;29;20450;-88
2024/01/30 12:01:32;;;;;;;7.85;1.55;;;;;;;;;;4927834;29;20521;-88
2024/01/30 12:04:03;;;;;;;5.53;1.35;;;;;;;;;;4933086;29;20545;-88
2024/01/30 12:06:34;;;;;;;4.93;1.50;;;;;;;;;;4934773;29;20035;-88
2024/01/30 12:09:04;;;;;;;5.35;1.70;;;;;;;;;;4934338;29;20059;-87
2024/01/30 12:11:46;;;;;;;9.50;2.22;;;;;;;;;;4916826;29;20059;-88
2024/01/30 12:14:17;;;;;;;12.73;4.43;;;;;;;;;;4917416;29;20047;-87
2024/01/30 12:16:51;;;;;;;5.90;1.80;;;;;;;;;;4933859;29;20051;-85
2024/01/30 12:19:35;;;;;;;4.50;1.70;;;;;;;;;;4936010;29;20483;-88
2024/01/30 12:22:11;;;;;;;3.88;1.55;;;;;;;;;;4948070;29;20082;-89
2024/01/30 12:24:45;;;;;;;5.22;1.70;;;;;;;;;;4958009;29;20058;-88
2024/01/30 12:27:17;;;;;;;2.47;1.25;;;;;;;;;;4958158;29;20393;-89
2024/01/30 12:29:49;;;;;;;3.92;1.13;;;;;;;;;;4937916;29;20383;-89
2024/01/30 12:32:19;;;;;;;5.22;1.38;;;;;;;;;;4953336;29;20413;-89
2024/01/30 12:34:49;;;;;;;4.07;1.25;;;;;;;;;;4953152;29;20047;-89
2024/01/30 12:37:30;;;;;;;2.35;1.50;;;;;;;;;;4957324;29;20050;-87
2024/01/30 12:40:13;;;;;;;2.85;1.35;;;;;;;;;;4942077;29;20493;-88
2024/01/30 12:43:25;;;;;;;2.08;0.82;;;;;;;;;;4960301;28;20048;-90
2024/01/30 12:46:31;;;;;;;5.35;1.00;;;;;;;;;;4943621;29;20066;-88
2024/01/30 12:49:01;;;;;;;7.93;1.10;;;;;;;;;;4951763;29;20046;-90
2024/01/30 12:51:35;;;;;;;1.25;0.80;;;;;;;;;;4953770;29;20391;-87
2024/01/30 12:54:07;;;;;;;6.78;1.20;;;;;;;;;;4941275;28;20039;-90
2024/01/30 12:56:37;;;;;;;4.57;1.40;;;;;;;;;;4957349;29;20058;-90
2024/01/30 12:59:06;;;;;;;4.90;1.58;;;;;;;;;;4957270;29;20059;-86
2024/01/30 13:01:36;;;;;;;3.13;1.35;;;;;;;;;;4957175;29;20055;-86
2024/01/30 13:04:07;;;;;;;4.28;1.20;;;;;;;;;;4949106;29;20054;-87
2024/01/30 13:06:37;;;;;;;3.00;1.30;;;;;;;;;;4956664;29;20507;-85
2024/01/30 13:09:07;;;;;;;4.03;1.65;;;;;;;;;;4957529;29;20060;-87
2024/01/30 13:11:38;;;;;;;3.30;1.13;;;;;;;;;;4956716;29;20047;-88
2024/01/30 13:14:07;;;;;;;4.63;1.40;;;;;;;;;;4957130;29;20055;-87
2024/01/30 13:16:38;;;;;;;2.40;1.25;;;;;;;;;;4940760;29;20054;-87
2024/01/30 13:19:09;;;;;;;5.38;0.95;;;;;;;;;;4957314;29;20058;-88
2024/01/30 13:21:40;;;;;;;3.03;0.95;;;;;;;;;;4953276;29;20058;-88
2024/01/30 13:24:11;;;;;;;2.72;0.80;;;;;;;;;;4922056;29;20055;-86
2024/01/30 13:26:43;;;;;;;2.92;0.90;;;;;;;;;;4937790;29;20051;-88
2024/01/30 13:29:13;;;;;;;6.35;0.98;;;;;;;;;;4937193;29;20052;-91
2024/01/30 13:31:45;;;;;;;7.93;1.35;;;;;;;;;;4930386;29;20399;-88
2024/01/30 13:34:16;;;;;;;1.40;0.80;;;;;;;;;;4921411;29;20052;-91
2024/01/30 13:36:48;;;;;;;3.45;1.23;;;;;;;;;;4938105;29;20054;-89
2024/01/30 13:39:19;;;;;;;3.67;1.20;;;;;;;;;;4937775;29;20048;-91
2024/01/30 13:41:51;;;;;;;6.47;1.60;;;;;;;;;;4937799;29;20044;-92
2024/01/30 13:44:26;;;;;;;7.97;1.42;;;;;;;;;;4914350;29;20048;-89
2024/01/30 13:46:56;;;;;;;5.35;2.53;;;;;;;;;;4904768;29;20044;-87
2024/01/30 13:49:27;;;;;;;5.32;1.35;;;;;;;;;;4939538;29;20040;-86
2024/01/30 13:51:58;;;;;;;2.78;1.33;;;;;;;;;;4920286;29;20063;-91
2024/01/30 13:54:30;;;;;;;8.20;1.33;;;;;;;;;;4937340;29;20055;-89
2024/01/30 13:57:01;;;;;;;2.30;1.25;;;;;;;;;;4938297;29;20402;-89
2024/01/30 13:59:32;;;;;;;;;;;;;;;;;;4924393;29;20040;-88
2024/01/30 14:02:01;;;;;;;4.68;1.20;;;;;;;;;;4935583;29;19922;-88
2024/01/30 14:04:32;;;;;;;2.60;1.13;;;;;;;;;;4937229;29;20052;-88
2024/01/30 14:07:03;;;;;;;2.15;0.70;;;;;;;;;;4936110;29;20521;-89
2024/01/30 14:09:34;;;;;;;1.85;0.93;;;;;;;;;;4937262;29;20048;-87
2024/01/30 14:12:04;;;;;;;3.20;1.10;;;;;;;;;;4938314;29;20619;-88
2024/01/30 14:14:34;;;;;;;2.38;0.90;;;;;;;;;;4938429;29;20044;-88
2024/01/30 14:17:06;;;;;;;7.47;1.70;;;;;;;;;;4945496;29;20039;-87
2024/01/30 14:19:37;;;;;;;4.45;1.05;;;;;;;;;;4943854;29;20080;-90
2024/01/30 14:22:07;;;;;;;3.45;1.00;;;;;;;;;;4922199;29;20059;-90
2024/01/30 14:24:41;;;;;;;3.00;1.10;;;;;;;;;;4935284;29;20067;-86
2024/01/30 14:27:37;;;;;;;2.65;1.00;;;;;;;;;;4910146;29;20059;-87
2024/01/30 14:30:13;;;;;;;;;;;;;;;;;;4938725;29;20528;-85
2024/01/30 14:32:44;;;;;;;6.78;0.73;;;;;;;;;;4915131;29;19930;-87
2024/01/30 14:35:50;;;;;;;4.15;1.13;;;;;;;;;;4926339;29;20043;-84
2024/01/30 14:38:21;;;;;;;3.00;1.23;;;;;;;;;;4935783;29;20499;-88
2024/01/30 14:41:11;;;;;;;3.35;1.10;;;;;;;;;;4920614;29;20048;-88
2024/01/30 14:43:53;;;;;;;2.85;0.63;;;;;;;;;;4915275;29;20051;-92
2024/01/30 14:46:26;;;;;;;2.08;0.65;;;;;;;;;;4934235;29;20505;-89
2024/01/30 14:48:59;;;;;;;2.40;0.65;;;;;;;;;;4936641;29;20044;-88
2024/01/30 14:51:30;;;;;;;7.20;1.00;;;;;;;;;;4920279;29;20071;-89
2024/01/30 14:54:00;;;;;;;2.97;0.73;;;;;;;;;;4921972;29;20052;-91
2024/01/30 14:56:30;;;;;;;3.80;1.05;;;;;;;;;;4920493;29;20410;-89
2024/01/30 14:59:00;;;;;;;2.75;0.60;;;;;;;;;;4920208;29;20051;-90
2024/01/30 15:01:31;;;;;;;1.52;0.63;;;;;;;;;;4922284;29;20051;-90
2024/01/30 15:04:02;;;;;;;2.33;1.02;;;;;;;;;;4937823;29;20059;-87
2024/01/30 15:06:33;;;;;;;4.25;0.75;;;;;;;;;;4937477;29;20372;-88
2024/01/30 15:09:03;;;;;;;4.00;1.05;;;;;;;;;;4935644;29;20048;-85
2024/01/30 15:11:35;;;;;;;2.10;0.75;;;;;;;;;;4936608;29;20830;-89